Time;durP1;ratioP1;P1;durP2;ratioP2;P2;SDS_P1;SDS_P2;PMS_P1;PMS_P2;Temp;Humidity;BMP_temperature;BMP_pressure;BME280_temperature;BME280_humidity;BME280_pressure;Samples;Min_cycle;Max_cycle;Signal;HPM_P1;HPM_P2
2023/07/18 00:01:32;;;;;;;0.50;0.20;;;;;;;15.68;91.56;100802.78;5073890;28;20541;-49
2023/07/18 00:03:59;;;;;;;0.50;0.20;;;;;;;15.71;91.17;100809.81;5073711;28;20449;-49
2023/07/18 00:06:25;;;;;;;0.50;0.20;;;;;;;15.77;91.17;100820.31;5073628;28;20533;-49
2023/07/18 00:08:52;;;;;;;0.50;0.20;;;;;;;15.69;91.66;100825.97;5073653;28;21006;-49
2023/07/18 00:11:20;;;;;;;0.50;0.20;;;;;;;15.63;92.09;100822.69;5073672;28;20536;-49
2023/07/18 00:13:47;;;;;;;0.50;0.20;;;;;;;15.72;91.77;100824.97;5073652;28;20445;-49
2023/07/18 00:16:13;;;;;;;0.50;0.20;;;;;;;15.99;90.74;100829.19;5073592;28;20446;-49
2023/07/18 00:18:40;;;;;;;0.50;0.20;;;;;;;15.99;90.22;100828.31;5073345;28;20470;-49
2023/07/18 00:21:07;;;;;;;0.50;0.20;;;;;;;16.04;90.26;100825.47;5073349;28;20997;-49
2023/07/18 00:23:34;;;;;;;0.50;0.20;;;;;;;15.83;91.33;100828.09;5073513;28;20454;-49
2023/07/18 00:26:00;;;;;;;0.50;0.20;;;;;;;15.59;92.43;100839.78;5073387;28;20507;-49
2023/07/18 00:28:28;;;;;;;0.50;0.30;;;;;;;15.30;93.62;100841.81;5073368;28;20470;-49
2023/07/18 00:30:55;;;;;;;0.50;0.20;;;;;;;15.51;93.18;100837.41;5073262;28;20481;-49
2023/07/18 00:33:21;;;;;;;0.50;0.20;;;;;;;15.24;94.30;100839.38;5073398;28;20446;-49
2023/07/18 00:35:48;;;;;;;0.40;0.20;;;;;;;15.49;93.88;100839.28;5073342;28;20481;-49
2023/07/18 00:38:14;;;;;;;0.50;0.20;;;;;;;15.41;93.97;100830.69;5073096;28;20549;-49
2023/07/18 00:40:41;;;;;;;0.50;0.30;;;;;;;15.55;93.71;100832.81;5073034;28;20503;-50
2023/07/18 00:43:14;;;;;;;0.50;0.20;;;;;;;15.58;93.15;100838.03;5073119;28;20499;-49
2023/07/18 00:45:42;;;;;;;0.50;0.20;;;;;;;15.61;93.05;100841.47;5072702;28;20511;-50
2023/07/18 00:48:10;;;;;;;0.50;0.20;;;;;;;15.49;93.59;100833.03;5072568;28;20531;-49
2023/07/18 00:50:37;;;;;;;0.50;0.20;;;;;;;15.26;94.62;100840.19;5072911;28;20485;-49
2023/07/18 00:53:04;;;;;;;0.50;0.20;;;;;;;15.31;94.48;100826.59;5072971;28;20442;-49
2023/07/18 00:55:31;;;;;;;0.50;0.20;;;;;;;15.53;93.33;100834.66;5072761;28;20534;-49
2023/07/18 00:57:59;;;;;;;0.50;0.20;;;;;;;15.67;92.40;100827.84;5072722;28;20473;-49
2023/07/18 01:00:26;;;;;;;0.50;0.20;;;;;;;15.55;92.31;100822.09;5072586;28;20489;-49
2023/07/18 01:02:53;;;;;;;0.50;0.20;;;;;;;15.29;92.80;100824.00;5072563;28;20525;-49
2023/07/18 01:05:20;;;;;;;0.50;0.20;;;;;;;15.21;93.74;100825.22;5072735;28;20541;-49
2023/07/18 01:07:47;;;;;;;0.50;0.30;;;;;;;15.01;94.12;100828.69;5072680;28;20471;-49
2023/07/18 01:10:24;;;;;;;0.50;0.20;;;;;;;14.95;94.27;100834.28;5072564;28;20474;-49
2023/07/18 01:13:01;;;;;;;0.50;0.20;;;;;;;15.02;93.85;100827.75;5072544;28;20446;-49
2023/07/18 01:15:33;;;;;;;0.50;0.20;;;;;;;14.95;93.93;100831.59;5060367;28;20496;-49
2023/07/18 01:18:07;;;;;;;0.50;0.20;;;;;;;14.79;94.32;100832.16;5072530;28;20508;-49
2023/07/18 01:20:35;;;;;;;0.50;0.20;;;;;;;14.75;94.98;100835.88;5072412;28;20442;-49
2023/07/18 01:23:06;;;;;;;0.50;0.20;;;;;;;14.86;94.73;100823.91;5072558;28;21000;-49
2023/07/18 01:25:33;;;;;;;0.50;0.20;;;;;;;14.67;95.85;100829.94;5072545;28;20470;-49
2023/07/18 01:28:00;;;;;;;0.40;0.20;;;;;;;14.85;95.69;100827.50;5072174;28;20528;-49
2023/07/18 01:30:28;;;;;;;0.40;0.20;;;;;;;14.47;96.56;100827.97;5072325;28;20445;-49
2023/07/18 01:32:54;;;;;;;0.50;0.20;;;;;;;14.56;96.59;100824.13;5072362;28;20537;-49
2023/07/18 01:35:26;;;;;;;0.47;0.20;;;;;;;14.57;96.59;100814.28;5072341;28;20994;-49
2023/07/18 01:37:54;;;;;;;0.50;0.20;;;;;;;14.45;97.09;100824.50;5072041;28;20561;-50
2023/07/18 01:40:22;;;;;;;0.50;0.20;;;;;;;14.32;97.54;100814.25;5072027;28;20537;-49
2023/07/18 01:42:51;;;;;;;0.50;0.20;;;;;;;14.30;98.11;100811.63;5052233;28;20552;-49
2023/07/18 01:45:19;;;;;;;0.40;0.20;;;;;;;14.26;98.39;100809.13;5065703;28;20454;-49
2023/07/18 01:47:47;;;;;;;0.50;0.20;;;;;;;14.27;98.43;100806.41;5072161;28;20481;-49
2023/07/18 01:50:14;;;;;;;0.50;0.20;;;;;;;14.57;97.26;100807.13;5071995;28;20487;-49
2023/07/18 01:52:40;;;;;;;0.50;0.20;;;;;;;14.52;96.84;100807.28;5072328;28;20881;-48
2023/07/18 01:55:07;;;;;;;0.50;0.20;;;;;;;14.43;96.37;100806.72;5072056;28;20485;-48
2023/07/18 01:57:40;;;;;;;0.50;0.20;;;;;;;14.38;96.26;100806.00;5072022;28;20537;-49
2023/07/18 02:00:12;;;;;;;0.50;0.20;;;;;;;14.26;96.91;100803.78;5073877;28;20458;-49
2023/07/18 02:02:38;;;;;;;0.50;0.20;;;;;;;14.32;97.00;100801.75;5076085;28;20537;-49
2023/07/18 02:05:06;;;;;;;0.40;0.20;;;;;;;14.19;97.22;100800.44;5076060;28;20453;-49
2023/07/18 02:07:32;;;;;;;0.50;0.20;;;;;;;14.22;97.38;100808.34;5076138;28;20457;-49
2023/07/18 02:10:00;;;;;;;0.50;0.20;;;;;;;14.19;97.55;100814.69;5075973;28;20517;-49
2023/07/18 02:12:27;;;;;;;0.47;0.20;;;;;;;14.33;96.52;100805.31;5076472;28;20454;-49
2023/07/18 02:14:54;;;;;;;0.40;0.20;;;;;;;14.25;96.73;100813.59;5075933;28;20507;-49
2023/07/18 02:17:21;;;;;;;0.40;0.20;;;;;;;14.08;96.69;100808.84;5075805;28;20453;-49
2023/07/18 02:19:47;;;;;;;0.40;0.20;;;;;;;13.94;96.93;100811.09;5075845;28;20553;-49
2023/07/18 02:22:14;;;;;;;0.40;0.20;;;;;;;13.90;96.76;100807.66;5075896;28;20580;-49
2023/07/18 02:24:41;;;;;;;0.40;0.20;;;;;;;13.80;97.38;100806.22;5075670;28;20445;-49
2023/07/18 02:27:07;;;;;;;0.40;0.20;;;;;;;13.67;97.59;100810.22;5075584;28;20923;-49
2023/07/18 02:29:34;;;;;;;0.40;0.20;;;;;;;13.78;98.05;100810.75;5075462;28;20516;-49
2023/07/18 02:32:00;;;;;;;0.50;0.20;;;;;;;13.80;96.96;100808.03;5075495;28;20446;-49
2023/07/18 02:34:27;;;;;;;0.40;0.20;;;;;;;13.86;96.69;100803.38;5075363;28;20901;-49
2023/07/18 02:36:54;;;;;;;0.50;0.20;;;;;;;13.84;97.25;100815.00;5075727;28;20446;-49
2023/07/18 02:39:20;;;;;;;0.40;0.20;;;;;;;13.81;96.58;100813.31;5075674;28;20560;-50
2023/07/18 02:41:46;;;;;;;0.40;0.20;;;;;;;13.72;96.82;100810.09;5063987;28;20613;-49
2023/07/18 02:44:13;;;;;;;0.40;0.20;;;;;;;13.71;96.84;100817.25;5059804;28;20485;-48
2023/07/18 02:46:40;;;;;;;0.40;0.20;;;;;;;13.69;97.56;100804.84;5075191;28;20461;-49
2023/07/18 02:49:06;;;;;;;0.40;0.20;;;;;;;13.84;97.67;100809.66;5075292;28;20470;-48
2023/07/18 02:51:33;;;;;;;0.40;0.20;;;;;;;13.85;97.03;100806.09;5075290;28;20529;-49
2023/07/18 02:53:59;;;;;;;0.40;0.20;;;;;;;13.77;96.86;100806.34;5075061;28;20537;-49
2023/07/18 02:56:25;;;;;;;0.40;0.30;;;;;;;13.68;97.23;100819.13;5075116;28;20485;-49
2023/07/18 02:58:52;;;;;;;0.40;0.20;;;;;;;13.48;97.10;100814.44;5074789;28;20520;-48
2023/07/18 03:01:19;;;;;;;0.40;0.20;;;;;;;13.54;97.53;100815.09;5075191;28;21001;-48
2023/07/18 03:03:46;;;;;;;0.40;0.20;;;;;;;13.36;97.71;100813.03;5074860;28;20922;-49
2023/07/18 03:06:15;;;;;;;0.40;0.20;;;;;;;13.35;98.17;100811.28;5075115;28;20489;-50
2023/07/18 03:08:41;;;;;;;0.40;0.20;;;;;;;13.25;97.94;100818.69;5074688;28;20512;-48
2023/07/18 03:11:08;;;;;;;0.50;0.20;;;;;;;13.29;98.52;100816.78;5074310;28;20450;-49
2023/07/18 03:13:36;;;;;;;0.50;0.20;;;;;;;13.38;97.62;100821.84;5074662;28;20445;-49
2023/07/18 03:16:04;;;;;;;0.40;0.20;;;;;;;13.22;98.77;100817.91;5075094;28;20449;-49
2023/07/18 03:18:31;;;;;;;0.40;0.20;;;;;;;13.12;98.32;100811.06;5074812;28;20477;-49
2023/07/18 03:20:58;;;;;;;0.40;0.20;;;;;;;13.16;97.91;100815.41;5074775;28;20504;-49
2023/07/18 03:23:28;;;;;;;0.50;0.20;;;;;;;13.15;98.67;100817.19;5054703;28;20552;-49
2023/07/18 03:25:54;;;;;;;0.40;0.20;;;;;;;13.27;98.46;100819.50;5068335;28;20531;-49
2023/07/18 03:28:21;;;;;;;0.40;0.20;;;;;;;13.23;97.90;100812.53;5074451;28;20880;-49
2023/07/18 03:30:48;;;;;;;0.40;0.20;;;;;;;13.32;98.20;100822.06;5060999;28;20534;-49
2023/07/18 03:33:15;;;;;;;0.40;0.20;;;;;;;13.23;97.66;100825.88;5074545;28;20503;-48
2023/07/18 03:35:41;;;;;;;0.40;0.20;;;;;;;13.19;98.06;100820.69;5074420;28;20442;-49
2023/07/18 03:38:08;;;;;;;0.50;0.20;;;;;;;13.04;98.36;100817.53;5074346;28;20457;-49
2023/07/18 03:40:34;;;;;;;0.47;0.20;;;;;;;13.01;98.36;100808.72;5060397;28;20497;-49
2023/07/18 03:43:01;;;;;;;0.40;0.20;;;;;;;13.14;98.78;100819.91;5066214;28;20577;-49
2023/07/18 03:45:28;;;;;;;0.40;0.20;;;;;;;12.95;98.43;100820.47;5069040;28;20541;-49
2023/07/18 03:47:55;;;;;;;0.40;0.20;;;;;;;12.82;99.73;100818.22;5073194;28;20466;-49
2023/07/18 03:50:22;;;;;;;0.40;0.20;;;;;;;12.93;98.43;100816.09;5074138;28;20453;-49
2023/07/18 03:52:48;;;;;;;0.40;0.20;;;;;;;12.87;99.47;100818.94;5074146;28;20438;-49
2023/07/18 03:55:15;;;;;;;0.50;0.20;;;;;;;12.87;99.24;100814.47;5073844;28;20523;-49
2023/07/18 03:57:42;;;;;;;0.40;0.20;;;;;;;12.98;99.39;100811.50;5074116;28;20536;-49
2023/07/18 04:00:17;;;;;;;0.40;0.20;;;;;;;13.02;98.72;100805.16;5074106;28;20453;-49
2023/07/18 04:02:46;;;;;;;0.50;0.20;;;;;;;12.91;99.39;100813.50;5074401;28;20513;-49
2023/07/18 04:05:14;;;;;;;0.40;0.20;;;;;;;13.03;99.28;100812.25;5073740;28;20446;-49
2023/07/18 04:07:41;;;;;;;0.40;0.20;;;;;;;13.01;100.00;100812.25;5073660;28;20520;-49
2023/07/18 04:10:08;;;;;;;0.40;0.20;;;;;;;13.16;99.57;100810.09;5073992;28;20541;-49
2023/07/18 04:12:35;;;;;;;0.40;0.20;;;;;;;13.22;98.82;100810.78;5073685;28;20813;-49
2023/07/18 04:15:01;;;;;;;0.40;0.20;;;;;;;13.23;98.74;100800.97;5073769;28;20481;-49
2023/07/18 04:17:28;;;;;;;0.40;0.20;;;;;;;13.16;99.68;100808.28;5073704;28;20450;-51
2023/07/18 04:19:57;;;;;;;0.40;0.20;;;;;;;13.36;99.44;100805.00;5073514;28;20456;-49
2023/07/18 04:22:24;;;;;;;0.40;0.20;;;;;;;13.31;99.58;100804.28;5073179;28;20528;-48
2023/07/18 04:24:50;;;;;;;0.40;0.20;;;;;;;13.49;99.45;100800.16;5072804;28;20456;-48
2023/07/18 04:27:21;;;;;;;0.40;0.20;;;;;;;13.65;98.67;100804.06;5073535;28;20446;-49
2023/07/18 04:29:48;;;;;;;0.40;0.20;;;;;;;13.74;97.89;100801.09;5073183;28;20589;-49
2023/07/18 04:32:18;;;;;;;0.40;0.20;;;;;;;13.73;98.01;100796.69;5073458;28;20541;-49
2023/07/18 04:34:47;;;;;;;0.40;0.20;;;;;;;13.70;98.75;100803.91;5073059;28;20511;-49
2023/07/18 04:37:13;;;;;;;0.40;0.20;;;;;;;13.81;99.18;100799.09;5073337;28;20536;-49
2023/07/18 04:39:40;;;;;;;0.40;0.20;;;;;;;13.88;99.31;100793.50;5068723;28;20994;-48
2023/07/18 04:42:06;;;;;;;0.40;0.20;;;;;;;14.01;99.27;100790.41;5066282;28;20565;-49
2023/07/18 04:44:33;;;;;;;0.40;0.20;;;;;;;14.62;97.59;100783.75;5059414;28;20876;-49
2023/07/18 04:46:59;;;;;;;0.40;0.20;;;;;;;15.41;94.03;100787.81;5071966;28;20481;-49
2023/07/18 04:49:26;;;;;;;0.40;0.20;;;;;;;16.04;91.31;100798.63;5060550;28;20470;-49
2023/07/18 04:51:52;;;;;;;0.40;0.20;;;;;;;16.63;88.26;100798.66;5072881;28;20492;-49
2023/07/18 04:54:19;;;;;;;0.40;0.20;;;;;;;17.25;85.71;100791.31;5073318;28;20859;-49
2023/07/18 04:56:46;;;;;;;0.40;0.20;;;;;;;17.48;85.56;100793.78;5059354;28;20457;-49
2023/07/18 04:59:12;;;;;;;0.43;0.20;;;;;;;17.82;83.73;100795.72;5072654;28;20470;-49
2023/07/18 05:01:40;;;;;;;0.50;0.20;;;;;;;18.08;82.44;100782.72;5072575;28;20532;-49
2023/07/18 05:04:06;;;;;;;0.60;0.60;;;;;;;18.13;82.62;100780.69;5072498;28;21003;-49
2023/07/18 05:06:33;;;;;;;0.50;0.20;;;;;;;18.31;81.31;100779.72;5072705;28;20866;-49
2023/07/18 05:08:59;;;;;;;0.50;0.20;;;;;;;18.62;79.42;100777.09;5072606;28;20474;-49
2023/07/18 05:11:26;;;;;;;0.50;0.20;;;;;;;19.08;78.00;100781.84;5072319;28;20951;-49
2023/07/18 05:13:52;;;;;;;0.50;0.20;;;;;;;18.80;79.21;100775.28;5072431;28;20488;-49
2023/07/18 05:16:18;;;;;;;0.50;0.20;;;;;;;19.29;78.01;100775.22;5072273;28;20537;-49
2023/07/18 05:18:45;;;;;;;0.50;0.20;;;;;;;19.14;77.59;100785.06;5072225;28;20469;-49
2023/07/18 05:21:12;;;;;;;0.50;0.20;;;;;;;19.23;76.96;100780.97;5072461;28;20450;-49
2023/07/18 05:23:38;;;;;;;0.50;0.20;;;;;;;19.54;76.07;100782.78;5072237;28;20486;-50
2023/07/18 05:26:07;;;;;;;0.50;0.20;;;;;;;19.85;75.15;100781.03;5072242;28;20450;-49
2023/07/18 05:28:34;;;;;;;0.50;0.20;;;;;;;19.65;75.22;100780.38;5072397;28;20840;-49
2023/07/18 05:31:07;;;;;;;0.50;0.20;;;;;;;19.55;75.26;100787.25;5072106;28;20481;-50
2023/07/18 05:33:34;;;;;;;0.50;0.20;;;;;;;19.88;74.62;100788.97;5072364;28;20444;-50
2023/07/18 05:36:00;;;;;;;0.50;0.20;;;;;;;20.18;73.62;100787.13;5072225;28;20445;-49
2023/07/18 05:38:27;;;;;;;0.50;0.20;;;;;;;20.16;73.24;100782.78;5071314;28;21049;-49
2023/07/18 05:40:54;;;;;;;0.50;0.20;;;;;;;20.22;72.39;100785.09;5067987;28;20935;-49
2023/07/18 05:43:21;;;;;;;0.50;0.20;;;;;;;20.18;72.30;100789.81;5063093;28;20525;-49
2023/07/18 05:45:49;;;;;;;0.50;0.20;;;;;;;19.89;73.15;100788.00;5070669;28;20544;-49
2023/07/18 05:48:15;;;;;;;0.50;0.20;;;;;;;20.26;72.05;100786.63;5072216;28;20865;-49
2023/07/18 05:50:42;;;;;;;0.50;0.20;;;;;;;20.25;71.37;100785.75;5054315;28;20489;-49
2023/07/18 05:53:08;;;;;;;0.50;0.20;;;;;;;20.49;70.85;100783.44;5052064;28;20450;-50
2023/07/18 05:55:35;;;;;;;0.50;0.30;;;;;;;20.58;70.02;100784.72;5070037;28;20511;-49
2023/07/18 05:58:01;;;;;;;0.50;0.20;;;;;;;20.96;69.22;100776.88;5071966;28;20470;-50
2023/07/18 06:00:27;;;;;;;0.50;0.20;;;;;;;20.93;69.64;100779.78;5071786;28;20476;-49
2023/07/18 06:02:54;;;;;;;0.50;0.20;;;;;;;20.81;70.05;100780.53;5071985;28;20999;-49
2023/07/18 06:05:24;;;;;;;0.50;0.20;;;;;;;20.85;69.82;100774.00;5072112;28;20454;-49
2023/07/18 06:07:51;;;;;;;0.50;0.30;;;;;;;20.85;69.43;100766.75;5059926;28;20550;-49
2023/07/18 06:10:17;;;;;;;0.50;0.20;;;;;;;20.73;70.38;100762.13;5070940;28;20450;-49
2023/07/18 06:12:44;;;;;;;0.50;0.20;;;;;;;20.78;70.51;100760.00;5071804;28;21027;-49
2023/07/18 06:15:11;;;;;;;0.50;0.20;;;;;;;20.98;70.62;100756.03;5071930;28;20528;-49
2023/07/18 06:17:37;;;;;;;0.97;0.97;;;;;;;21.30;68.97;100756.66;5071912;28;20499;-49
2023/07/18 06:20:13;;;;;;;0.50;0.20;;;;;;;20.99;69.01;100736.16;5071821;28;20468;-49
2023/07/18 06:22:40;;;;;;;0.50;0.20;;;;;;;20.92;69.95;100742.91;5071688;28;20535;-49
2023/07/18 06:25:07;;;;;;;0.50;0.20;;;;;;;20.87;70.19;100748.63;5071663;28;20529;-50
2023/07/18 06:27:34;;;;;;;0.50;0.20;;;;;;;21.46;68.59;100738.44;5071512;28;20959;-49
2023/07/18 06:30:01;;;;;;;0.50;0.20;;;;;;;21.48;68.41;100739.22;5071942;28;20594;-49
2023/07/18 06:32:28;;;;;;;0.50;0.20;;;;;;;21.39;69.74;100750.66;5071964;28;20453;-49
2023/07/18 06:34:55;;;;;;;0.50;0.30;;;;;;;20.93;71.49;100736.53;5071517;28;20859;-49
2023/07/18 06:37:29;;;;;;;0.50;0.20;;;;;;;21.85;68.02;100740.31;5071505;28;20549;-49
2023/07/18 06:39:55;;;;;;;0.50;0.20;;;;;;;21.60;68.25;100742.94;5061632;28;20505;-49
2023/07/18 06:42:22;;;;;;;0.50;0.20;;;;;;;21.61;68.95;100741.09;5067753;28;20480;-49
2023/07/18 06:44:48;;;;;;;0.50;0.20;;;;;;;21.72;69.49;100739.41;5071802;28;20462;-49
2023/07/18 06:47:15;;;;;;;0.50;0.20;;;;;;;21.87;67.34;100734.78;5059884;28;20549;-49
2023/07/18 06:49:41;;;;;;;0.50;0.20;;;;;;;21.83;67.79;100736.84;5075108;28;21006;-49
2023/07/18 06:52:08;;;;;;;0.50;0.20;;;;;;;22.04;67.84;100745.31;5074986;28;20449;-50
2023/07/18 06:54:34;;;;;;;0.50;0.30;;;;;;;22.06;67.26;100737.97;5075239;28;20456;-49
2023/07/18 06:57:01;;;;;;;0.50;0.20;;;;;;;22.07;66.80;100742.47;5071669;28;20462;-49
2023/07/18 06:59:27;;;;;;;0.50;0.20;;;;;;;22.61;65.69;100730.53;5065144;28;20461;-49
2023/07/18 07:01:54;;;;;;;0.50;0.30;;;;;;;22.86;64.48;100740.50;5074950;28;20552;-49
2023/07/18 07:04:20;;;;;;;0.50;0.20;;;;;;;22.60;65.08;100736.94;5064588;28;20482;-50
2023/07/18 07:06:47;;;;;;;0.50;0.20;;;;;;;22.81;64.86;100729.09;5058705;28;20445;-49
2023/07/18 07:09:13;;;;;;;0.50;0.20;;;;;;;22.81;64.94;100729.97;5075059;28;20469;-49
2023/07/18 07:11:42;;;;;;;0.50;0.20;;;;;;;22.67;65.18;100722.84;5071127;28;20454;-49
2023/07/18 07:14:08;;;;;;;0.50;0.20;;;;;;;23.02;63.77;100728.41;5065943;28;20450;-49
2023/07/18 07:16:35;;;;;;;0.50;0.20;;;;;;;23.05;63.96;100727.34;5074727;28;20446;-49
2023/07/18 07:19:02;;;;;;;0.50;0.30;;;;;;;22.39;64.85;100717.66;5074637;28;20474;-49
2023/07/18 07:21:29;;;;;;;0.50;0.30;;;;;;;23.11;63.58;100718.75;5074464;28;20489;-49
2023/07/18 07:23:56;;;;;;;0.50;0.20;;;;;;;22.93;64.19;100715.56;5074833;28;20481;-49
2023/07/18 07:26:24;;;;;;;0.50;0.20;;;;;;;23.40;61.58;100713.00;5061126;28;20450;-49
2023/07/18 07:28:50;;;;;;;0.50;0.20;;;;;;;23.37;61.00;100715.94;5074562;28;20826;-49
2023/07/18 07:31:17;;;;;;;0.50;0.20;;;;;;;22.96;60.44;100704.47;5074546;28;20454;-49
2023/07/18 07:33:44;;;;;;;0.50;0.20;;;;;;;23.41;59.33;100699.31;5074571;28;20442;-49
2023/07/18 07:36:11;;;;;;;0.50;0.20;;;;;;;23.97;57.98;100696.84;5074241;28;20456;-49
2023/07/18 07:38:37;;;;;;;0.50;0.30;;;;;;;24.06;58.16;100701.56;5074222;28;20890;-49
2023/07/18 07:41:05;;;;;;;0.50;0.20;;;;;;;24.45;55.80;100697.56;5070980;28;21011;-49
2023/07/18 07:43:32;;;;;;;0.50;0.30;;;;;;;24.37;56.04;100702.75;5061890;28;20487;-49
2023/07/18 07:45:59;;;;;;;0.50;0.20;;;;;;;23.84;56.89;100702.34;5059829;28;20893;-49
2023/07/18 07:48:26;;;;;;;0.50;0.20;;;;;;;23.81;56.56;100701.72;5074172;28;20466;-49
2023/07/18 07:50:52;;;;;;;0.50;0.20;;;;;;;23.89;56.21;100688.44;5074334;28;20508;-49
2023/07/18 07:53:18;;;;;;;0.50;0.30;;;;;;;24.14;54.90;100679.25;5074425;28;20533;-50
2023/07/18 07:55:45;;;;;;;0.50;0.30;;;;;;;23.83;54.11;100684.31;5073980;28;20939;-49
2023/07/18 07:58:11;;;;;;;0.50;0.20;;;;;;;23.75;54.98;100675.94;5073990;28;20501;-50
2023/07/18 08:00:38;;;;;;;0.50;0.20;;;;;;;23.92;50.87;100675.47;5074935;28;20424;-49
2023/07/18 08:03:04;;;;;;;0.50;0.30;;;;;;;24.05;51.55;100669.09;5073959;28;20572;-50
2023/07/18 08:05:31;;;;;;;0.50;0.30;;;;;;;24.21;49.95;100664.16;5074292;28;20425;-49
2023/07/18 08:07:57;;;;;;;0.50;0.30;;;;;;;24.19;49.24;100669.72;5074331;28;21006;-49
2023/07/18 08:10:24;;;;;;;0.50;0.30;;;;;;;24.45;49.48;100661.38;5074168;28;20474;-49
2023/07/18 08:12:50;;;;;;;0.50;0.30;;;;;;;24.54;48.23;100666.09;5074162;28;20866;-49
2023/07/18 08:15:17;;;;;;;0.50;0.30;;;;;;;24.31;50.23;100661.63;5073843;28;20849;-50
2023/07/18 08:17:44;;;;;;;0.50;0.30;;;;;;;25.02;49.28;100668.50;5073468;28;20909;-49
2023/07/18 08:20:12;;;;;;;0.50;0.30;;;;;;;24.49;49.55;100658.28;5066939;28;20966;-50
2023/07/18 08:22:39;;;;;;;3.23;2.93;;;;;;;24.93;49.27;100659.22;5067590;28;20453;-49
2023/07/18 08:25:06;;;;;;;0.50;0.30;;;;;;;25.21;47.67;100654.22;5073682;28;20464;-50
2023/07/18 08:27:32;;;;;;;0.50;0.30;;;;;;;25.19;47.90;100646.19;5073471;28;20536;-50
2023/07/18 08:30:01;;;;;;;0.50;0.20;;;;;;;25.00;46.84;100641.44;5073737;28;20477;-49
2023/07/18 08:32:27;;;;;;;0.50;0.50;;;;;;;25.09;47.36;100643.41;5073327;28;20499;-50
2023/07/18 08:34:55;;;;;;;0.50;0.30;;;;;;;25.54;45.56;100637.78;5073697;28;20526;-50
2023/07/18 08:37:22;;;;;;;0.50;0.23;;;;;;;25.25;45.62;100636.66;5073419;28;21017;-49
2023/07/18 08:39:48;;;;;;;0.50;0.20;;;;;;;25.61;45.32;100629.94;5065293;23;20506;-53
2023/07/18 08:42:19;;;;;;;0.50;0.30;;;;;;;25.40;45.15;100630.78;5051318;28;20451;-55
2023/07/18 08:44:49;;;;;;;0.50;0.27;;;;;;;25.48;44.97;100630.13;5041875;28;20504;-54
2023/07/18 08:47:16;;;;;;;0.50;0.30;;;;;;;25.26;45.32;100620.22;5039534;28;20538;-53
2023/07/18 08:49:43;;;;;;;0.50;0.30;;;;;;;25.24;43.69;100613.16;5053126;28;20467;-53
2023/07/18 08:52:09;;;;;;;0.50;0.30;;;;;;;25.47;44.77;100613.91;5052793;28;20975;-53
2023/07/18 08:54:36;;;;;;;0.50;0.20;;;;;;;26.21;43.93;100607.41;5052814;28;20951;-53
2023/07/18 08:57:03;;;;;;;0.50;0.20;;;;;;;25.63;43.90;100607.03;5052773;28;20447;-53
2023/07/18 08:59:31;;;;;;;0.50;0.30;;;;;;;26.05;43.62;100596.16;5052609;28;20474;-53
2023/07/18 09:01:57;;;;;;;0.50;0.20;;;;;;;26.14;43.00;100580.81;5052844;28;20447;-53
2023/07/18 09:04:24;;;;;;;0.50;0.30;;;;;;;26.03;42.65;100573.59;5052524;28;20486;-53
2023/07/18 09:06:58;;;;;;;0.50;0.30;;;;;;;26.35;42.53;100557.09;5052640;28;20433;-53
2023/07/18 09:09:25;;;;;;;0.50;0.30;;;;;;;25.97;42.51;100550.50;5052059;28;20444;-53
2023/07/18 09:11:59;;;;;;;0.50;0.30;;;;;;;26.46;42.89;100553.44;5052997;28;20463;-53
2023/07/18 09:14:33;;;;;;;0.50;0.30;;;;;;;26.64;41.84;100556.34;5052735;28;20944;-53
2023/07/18 09:17:04;;;;;;;0.50;0.30;;;;;;;25.63;43.00;100555.31;5052808;28;20453;-53
2023/07/18 09:19:42;;;;;;;0.50;0.20;;;;;;;26.30;43.17;100559.34;5052449;28;20438;-53
2023/07/18 09:22:10;;;;;;;0.50;0.30;;;;;;;26.60;42.18;100550.31;5052648;28;20454;-53
2023/07/18 09:24:42;;;;;;;0.50;0.27;;;;;;;26.26;41.50;100531.53;5052363;28;20487;-53
2023/07/18 09:27:19;;;;;;;0.50;0.20;;;;;;;26.17;41.89;100524.16;5052589;28;20508;-53
2023/07/18 09:29:47;;;;;;;0.50;0.20;;;;;;;26.04;41.64;100523.56;5052316;28;20550;-54
2023/07/18 09:32:17;;;;;;;0.50;0.30;;;;;;;26.03;42.65;100529.13;5052357;28;20459;-53
2023/07/18 09:34:53;;;;;;;0.50;0.30;;;;;;;26.11;40.99;100527.44;5052058;28;20508;-53
2023/07/18 09:37:20;;;;;;;0.50;0.30;;;;;;;26.07;40.53;100531.47;5052475;28;20835;-53
2023/07/18 09:39:48;;;;;;;0.50;0.30;;;;;;;26.38;40.88;100531.44;5052003;28;20519;-53
2023/07/18 09:42:16;;;;;;;0.50;0.20;;;;;;;27.25;39.94;100540.59;5036830;28;20509;-54
2023/07/18 09:44:48;;;;;;;0.50;0.30;;;;;;;27.79;38.92;100544.56;5041318;28;20577;-54
2023/07/18 09:47:18;;;;;;;0.50;0.30;;;;;;;26.84;39.20;100545.31;5052175;28;20451;-53
2023/07/18 09:49:45;;;;;;;0.50;0.30;;;;;;;26.81;40.23;100553.78;5052355;28;20474;-53
2023/07/18 09:52:12;;;;;;;0.50;0.30;;;;;;;26.47;40.55;100561.47;5052173;28;20489;-53
2023/07/18 09:54:40;;;;;;;0.50;0.30;;;;;;;26.43;38.87;100575.50;5052229;28;20443;-53
2023/07/18 09:57:11;;;;;;;0.50;0.23;;;;;;;26.85;39.05;100577.03;5052020;28;20827;-54
2023/07/18 09:59:39;;;;;;;0.50;0.30;;;;;;;27.09;38.80;100587.59;5052004;28;20471;-54
2023/07/18 10:02:08;;;;;;;0.50;0.23;;;;;;;27.05;38.97;100601.69;5051829;28;20451;-53
2023/07/18 10:04:35;;;;;;;0.50;0.27;;;;;;;26.34;38.58;100587.22;5034214;28;20486;-54
2023/07/18 10:07:03;;;;;;;0.50;0.23;;;;;;;26.63;38.52;100582.75;5051860;28;20554;-53
2023/07/18 10:09:31;;;;;;;0.50;0.20;;;;;;;26.51;39.26;100579.28;5051765;28;20519;-53
2023/07/18 10:11:58;;;;;;;0.50;0.27;;;;;;;26.51;39.55;100578.41;5051950;28;20433;-53
2023/07/18 10:14:46;;;;;;;0.50;0.30;;;;;;;26.58;39.67;100590.47;5051756;28;20444;-53
2023/07/18 10:17:31;;;;;;;0.50;0.20;;;;;;;26.49;39.11;100594.06;5041068;28;20477;-53
2023/07/18 10:19:57;;;;;;;0.50;0.30;;;;;;;26.37;39.16;100576.06;5051783;28;20529;-53
2023/07/18 10:22:26;;;;;;;0.50;0.20;;;;;;;25.93;38.86;100551.78;5053994;28;20450;-53
2023/07/18 10:24:58;;;;;;;0.60;0.60;;;;;;;26.68;39.75;100531.34;5037566;28;21002;-53
2023/07/18 10:27:36;;;;;;;0.50;0.20;;;;;;;26.00;38.79;100519.38;5055985;28;20506;-53
2023/07/18 10:30:06;;;;;;;1.33;1.23;;;;;;;26.29;38.82;100524.91;5055775;28;20553;-53
2023/07/18 10:32:34;;;;;;;0.50;0.20;;;;;;;26.01;38.02;100542.03;5055643;28;20417;-53
2023/07/18 10:35:06;;;;;;;0.50;0.20;;;;;;;26.05;37.88;100528.03;5055572;28;20450;-53
2023/07/18 10:37:33;;;;;;;0.50;0.20;;;;;;;26.17;37.91;100510.53;5055366;28;20892;-53
2023/07/18 10:40:04;;;;;;;0.50;0.30;;;;;;;26.48;38.04;100489.56;5055228;28;20444;-53
2023/07/18 10:42:34;;;;;;;1.30;1.13;;;;;;;26.64;37.54;100493.63;5037670;28;20448;-53
2023/07/18 10:45:03;;;;;;;0.50;0.30;;;;;;;26.66;37.55;100489.72;5046971;28;20468;-53
2023/07/18 10:47:30;;;;;;;0.50;0.30;;;;;;;26.73;37.09;100474.53;5055089;28;20972;-53
2023/07/18 10:49:58;;;;;;;0.50;0.27;;;;;;;26.36;36.67;100462.56;5055035;28;20471;-53
2023/07/18 10:52:24;;;;;;;0.50;0.27;;;;;;;26.33;36.31;100458.25;5055138;28;20869;-53
2023/07/18 10:54:54;;;;;;;0.50;0.20;;;;;;;26.47;36.25;100466.03;5054961;28;20512;-53
2023/07/18 10:57:25;;;;;;;0.50;0.27;;;;;;;27.09;35.71;100463.91;5037769;28;20486;-53
2023/07/18 10:59:52;;;;;;;0.50;0.30;;;;;;;26.65;35.86;100473.50;5054734;28;20852;-53
2023/07/18 11:02:19;;;;;;;0.50;0.20;;;;;;;26.36;37.11;100460.72;5054947;28;20426;-53
2023/07/18 11:04:47;;;;;;;0.50;0.20;;;;;;;26.16;36.62;100458.91;5037275;28;20544;-53
2023/07/18 11:07:14;;;;;;;0.50;0.23;;;;;;;26.97;36.50;100448.66;5054914;28;21029;-53
2023/07/18 11:09:42;;;;;;;0.50;0.30;;;;;;;26.57;36.41;100438.75;5054836;28;20791;-53
2023/07/18 11:12:17;;;;;;;0.50;0.23;;;;;;;27.00;37.05;100437.44;5054900;28;20474;-53
2023/07/18 11:14:44;;;;;;;0.50;0.43;;;;;;;27.05;36.23;100427.88;5054772;28;20504;-53
2023/07/18 11:17:16;;;;;;;0.50;0.20;;;;;;;26.97;36.38;100418.63;5055025;28;21204;-53
2023/07/18 11:19:43;;;;;;;0.50;0.30;;;;;;;26.77;36.23;100409.63;5054397;28;20446;-53
2023/07/18 11:22:10;;;;;;;0.50;0.30;;;;;;;26.74;36.12;100418.97;5054623;28;20524;-53
2023/07/18 11:24:37;;;;;;;0.50;0.27;;;;;;;27.28;36.73;100416.63;5054401;28;20574;-53
2023/07/18 11:27:17;;;;;;;0.50;0.30;;;;;;;27.52;35.50;100416.09;5054641;28;20453;-53